sensor_id;sensor_type;location;lat;lon;timestamp;pressure;altitude;pressure_sealevel;temperature;humidity
74163;BME280;62515;52.758;5.076;2023-12-14T00:02:13;101172.09;;;4.78;100.00
74163;BME280;62515;52.758;5.076;2023-12-14T00:04:40;101161.59;;;4.76;100.00
74163;BME280;62515;52.758;5.076;2023-12-14T00:07:09;101178.28;;;4.77;100.00
74163;BME280;62515;52.758;5.076;2023-12-14T00:09:35;101180.91;;;4.77;100.00
74163;BME280;62515;52.758;5.076;2023-12-14T00:12:02;101180.91;;;4.77;100.00
74163;BME280;62515;52.758;5.076;2023-12-14T00:14:29;101189.81;;;4.74;100.00
74163;BME280;62515;52.758;5.076;2023-12-14T00:16:56;101191.59;;;4.73;100.00
74163;BME280;62515;52.758;5.076;2023-12-14T00:19:23;101194.28;;;4.72;100.00
74163;BME280;62515;52.758;5.076;2023-12-14T00:21:50;101192.59;;;4.71;100.00
74163;BME280;62515;52.758;5.076;2023-12-14T00:24:18;101207.53;;;4.70;100.00
74163;BME280;62515;52.758;5.076;2023-12-14T00:26:45;101206.66;;;4.70;100.00
74163;BME280;62515;52.758;5.076;2023-12-14T00:29:11;101205.81;;;4.69;100.00
74163;BME280;62515;52.758;5.076;2023-12-14T00:31:38;101209.34;;;4.68;100.00
74163;BME280;62515;52.758;5.076;2023-12-14T00:34:05;101212.72;;;4.72;100.00
74163;BME280;62515;52.758;5.076;2023-12-14T00:36:32;101212.06;;;4.67;100.00
74163;BME280;62515;52.758;5.076;2023-12-14T00:38:58;101226.00;;;4.70;100.00
74163;BME280;62515;52.758;5.076;2023-12-14T00:41:27;101228.53;;;4.72;100.00
74163;BME280;62515;52.758;5.076;2023-12-14T00:43:53;101239.16;;;4.70;100.00
74163;BME280;62515;52.758;5.076;2023-12-14T00:46:20;101248.00;;;4.69;100.00
74163;BME280;62515;52.758;5.076;2023-12-14T00:48:47;101240.03;;;4.71;100.00
74163;BME280;62515;52.758;5.076;2023-12-14T00:51:14;101245.47;;;4.66;100.00
74163;BME280;62515;52.758;5.076;2023-12-14T00:53:40;101255.13;;;4.67;100.00
74163;BME280;62515;52.758;5.076;2023-12-14T00:56:08;101260.25;;;4.70;100.00
74163;BME280;62515;52.758;5.076;2023-12-14T00:58:37;101261.16;;;4.69;100.00
74163;BME280;62515;52.758;5.076;2023-12-14T01:01:04;101266.53;;;4.68;100.00
74163;BME280;62515;52.758;5.076;2023-12-14T01:03:31;101271.84;;;4.66;100.00
74163;BME280;62515;52.758;5.076;2023-12-14T01:05:58;101285.81;;;4.68;100.00
74163;BME280;62515;52.758;5.076;2023-12-14T01:08:25;101290.16;;;4.69;100.00
74163;BME280;62515;52.758;5.076;2023-12-14T01:10:51;101285.88;;;4.67;100.00
74163;BME280;62515;52.758;5.076;2023-12-14T01:13:18;101288.56;;;4.65;100.00
74163;BME280;62515;52.758;5.076;2023-12-14T01:15:46;101292.03;;;4.67;100.00
74163;BME280;62515;52.758;5.076;2023-12-14T01:18:13;101294.66;;;4.67;100.00
74163;BME280;62515;52.758;5.076;2023-12-14T01:20:40;101304.25;;;4.68;100.00
74163;BME280;62515;52.758;5.076;2023-12-14T01:23:07;101310.41;;;4.69;100.00
74163;BME280;62515;52.758;5.076;2023-12-14T01:25:34;101311.34;;;4.68;100.00
74163;BME280;62515;52.758;5.076;2023-12-14T01:28:01;101318.38;;;4.67;100.00
74163;BME280;62515;52.758;5.076;2023-12-14T01:30:27;101324.53;;;4.68;100.00
74163;BME280;62515;52.758;5.076;2023-12-14T01:32:56;101313.28;;;4.63;100.00
74163;BME280;62515;52.758;5.076;2023-12-14T01:35:22;101327.97;;;4.68;100.00
74163;BME280;62515;52.758;5.076;2023-12-14T01:37:50;101315.06;;;4.62;100.00
74163;BME280;62515;52.758;5.076;2023-12-14T01:40:18;101325.59;;;4.62;100.00
74163;BME280;62515;52.758;5.076;2023-12-14T01:42:45;101336.25;;;4.59;100.00
74163;BME280;62515;52.758;5.076;2023-12-14T01:45:12;101338.91;;;4.59;100.00
74163;BME280;62515;52.758;5.076;2023-12-14T01:47:39;101341.66;;;4.56;100.00
74163;BME280;62515;52.758;5.076;2023-12-14T01:50:07;101353.06;;;4.57;100.00
74163;BME280;62515;52.758;5.076;2023-12-14T01:52:34;101352.28;;;4.55;100.00
74163;BME280;62515;52.758;5.076;2023-12-14T01:55:02;101360.94;;;4.58;100.00
74163;BME280;62515;52.758;5.076;2023-12-14T01:57:29;101365.50;;;4.53;100.00
74163;BME280;62515;52.758;5.076;2023-12-14T01:59:55;101365.25;;;4.59;100.00
74163;BME280;62515;52.758;5.076;2023-12-14T02:02:22;101376.63;;;4.61;100.00
74163;BME280;62515;52.758;5.076;2023-12-14T02:04:49;101375.81;;;4.59;100.00
74163;BME280;62515;52.758;5.076;2023-12-14T02:07:17;101383.72;;;4.59;100.00
74163;BME280;62515;52.758;5.076;2023-12-14T02:09:44;101388.97;;;4.59;100.00
74163;BME280;62515;52.758;5.076;2023-12-14T02:12:10;101394.13;;;4.62;100.00
74163;BME280;62515;52.758;5.076;2023-12-14T02:14:37;101394.13;;;4.62;100.00
74163;BME280;62515;52.758;5.076;2023-12-14T02:17:04;101399.41;;;4.62;100.00
74163;BME280;62515;52.758;5.076;2023-12-14T02:19:31;101404.69;;;4.62;100.00
74163;BME280;62515;52.758;5.076;2023-12-14T02:21:58;101411.78;;;4.60;100.00
74163;BME280;62515;52.758;5.076;2023-12-14T02:24:26;101419.75;;;4.59;100.00
74163;BME280;62515;52.758;5.076;2023-12-14T02:26:53;101417.22;;;4.56;100.00
74163;BME280;62515;52.758;5.076;2023-12-14T02:29:29;101425.03;;;4.59;100.00
74163;BME280;62515;52.758;5.076;2023-12-14T02:31:56;101430.28;;;4.59;100.00
74163;BME280;62515;52.758;5.076;2023-12-14T02:34:23;101428.81;;;4.52;100.00
74163;BME280;62515;52.758;5.076;2023-12-14T02:36:49;101437.63;;;4.51;100.00
74163;BME280;62515;52.758;5.076;2023-12-14T02:39:16;101434.25;;;4.47;100.00
74163;BME280;62515;52.758;5.076;2023-12-14T02:41:44;101440.56;;;4.43;100.00
74163;BME280;62515;52.758;5.076;2023-12-14T02:44:11;101448.53;;;4.42;100.00
74163;BME280;62515;52.758;5.076;2023-12-14T02:46:38;101457.25;;;4.42;100.00
74163;BME280;62515;52.758;5.076;2023-12-14T02:49:05;101466.84;;;4.45;100.00
74163;BME280;62515;52.758;5.076;2023-12-14T02:51:31;101471.19;;;4.46;100.00
74163;BME280;62515;52.758;5.076;2023-12-14T02:53:58;101452.81;;;4.44;100.00
74163;BME280;62515;52.758;5.076;2023-12-14T02:56:25;101452.81;;;4.44;100.00
74163;BME280;62515;52.758;5.076;2023-12-14T02:58:53;101464.97;;;4.48;100.00
74163;BME280;62515;52.758;5.076;2023-12-14T03:01:20;101465.16;;;4.42;100.00
74163;BME280;62515;52.758;5.076;2023-12-14T03:03:47;101471.09;;;4.49;100.00
74163;BME280;62515;52.758;5.076;2023-12-14T03:06:14;101472.81;;;4.50;100.00
74163;BME280;62515;52.758;5.076;2023-12-14T03:08:40;101466.69;;;4.49;100.00
74163;BME280;62515;52.758;5.076;2023-12-14T03:11:07;101473.66;;;4.50;100.00
74163;BME280;62515;52.758;5.076;2023-12-14T03:13:34;101477.22;;;4.49;100.00
74163;BME280;62515;52.758;5.076;2023-12-14T03:16:03;101478.06;;;4.50;100.00
74163;BME280;62515;52.758;5.076;2023-12-14T03:18:30;101484.25;;;4.49;100.00
74163;BME280;62515;52.758;5.076;2023-12-14T03:20:56;101488.59;;;4.51;100.00
74163;BME280;62515;52.758;5.076;2023-12-14T03:23:23;101488.63;;;4.50;100.00
74163;BME280;62515;52.758;5.076;2023-12-14T03:25:50;101485.19;;;4.48;100.00
74163;BME280;62515;52.758;5.076;2023-12-14T03:28:17;101486.25;;;4.42;100.00
74163;BME280;62515;52.758;5.076;2023-12-14T03:30:44;101500.25;;;4.44;100.00
74163;BME280;62515;52.758;5.076;2023-12-14T03:33:12;101500.25;;;4.44;100.00
74163;BME280;62515;52.758;5.076;2023-12-14T03:35:39;101503.03;;;4.40;100.00
74163;BME280;62515;52.758;5.076;2023-12-14T03:38:05;101497.78;;;4.40;100.00
74163;BME280;62515;52.758;5.076;2023-12-14T03:40:32;101497.84;;;4.38;100.00
74163;BME280;62515;52.758;5.076;2023-12-14T03:42:59;101496.13;;;4.37;100.00
74163;BME280;62515;52.758;5.076;2023-12-14T03:45:26;101501.41;;;4.36;100.00
74163;BME280;62515;52.758;5.076;2023-12-14T03:47:53;101506.75;;;4.34;100.00
74163;BME280;62515;52.758;5.076;2023-12-14T03:50:21;101512.03;;;4.34;100.00
74163;BME280;62515;52.758;5.076;2023-12-14T03:52:48;101512.81;;;4.36;100.00
74163;BME280;62515;52.758;5.076;2023-12-14T03:55:15;101522.50;;;4.36;100.00
74163;BME280;62515;52.758;5.076;2023-12-14T03:57:42;101521.81;;;4.31;100.00
74163;BME280;62515;52.758;5.076;2023-12-14T04:00:10;101526.97;;;4.34;100.00
74163;BME280;62515;52.758;5.076;2023-12-14T04:02:37;101526.94;;;4.35;100.00
74163;BME280;62515;52.758;5.076;2023-12-14T04:05:05;101528.63;;;4.36;100.00
74163;BME280;62515;52.758;5.076;2023-12-14T04:07:34;101526.06;;;4.35;100.00
74163;BME280;62515;52.758;5.076;2023-12-14T04:10:01;101537.47;;;4.35;100.00
74163;BME280;62515;52.758;5.076;2023-12-14T04:12:28;101530.41;;;4.36;100.00
74163;BME280;62515;52.758;5.076;2023-12-14T04:14:54;101531.38;;;4.33;100.00
74163;BME280;62515;52.758;5.076;2023-12-14T04:17:21;101535.69;;;4.36;100.00
74163;BME280;62515;52.758;5.076;2023-12-14T04:19:48;101539.19;;;4.36;100.00
74163;BME280;62515;52.758;5.076;2023-12-14T04:22:15;101547.03;;;4.38;100.00
74163;BME280;62515;52.758;5.076;2023-12-14T04:24:43;101540.13;;;4.35;100.00
74163;BME280;62515;52.758;5.076;2023-12-14T04:27:10;101534.88;;;4.34;100.00
74163;BME280;62515;52.758;5.076;2023-12-14T04:29:36;101542.84;;;4.32;100.00
74163;BME280;62515;52.758;5.076;2023-12-14T04:32:04;101547.25;;;4.32;100.00
74163;BME280;62515;52.758;5.076;2023-12-14T04:34:31;101563.00;;;4.33;100.00
74163;BME280;62515;52.758;5.076;2023-12-14T04:36:58;101556.19;;;4.28;100.00
74163;BME280;62515;52.758;5.076;2023-12-14T04:39:25;101568.28;;;4.33;100.00
74163;BME280;62515;52.758;5.076;2023-12-14T04:41:53;101573.59;;;4.32;100.00
74163;BME280;62515;52.758;5.076;2023-12-14T04:44:20;101577.94;;;4.33;100.00
74163;BME280;62515;52.758;5.076;2023-12-14T04:46:47;101588.56;;;4.31;100.00
74163;BME280;62515;52.758;5.076;2023-12-14T04:49:14;101593.81;;;4.31;100.00
74163;BME280;62515;52.758;5.076;2023-12-14T04:51:41;101598.28;;;4.29;100.00
74163;BME280;62515;52.758;5.076;2023-12-14T04:54:08;101606.09;;;4.32;100.00
74163;BME280;62515;52.758;5.076;2023-12-14T04:56:35;101622.63;;;4.36;100.00
74163;BME280;62515;52.758;5.076;2023-12-14T04:59:03;101626.13;;;4.36;100.00
74163;BME280;62515;52.758;5.076;2023-12-14T05:01:30;101626.34;;;4.30;100.00
74163;BME280;62515;52.758;5.076;2023-12-14T05:04:00;101638.63;;;4.31;100.00
74163;BME280;62515;52.758;5.076;2023-12-14T05:06:27;101642.88;;;4.35;100.00
74163;BME280;62515;52.758;5.076;2023-12-14T05:08:54;101642.91;;;4.34;100.00
74163;BME280;62515;52.758;5.076;2023-12-14T05:11:20;101646.44;;;4.33;100.00
74163;BME280;62515;52.758;5.076;2023-12-14T05:13:47;101661.34;;;4.34;100.00
74163;BME280;62515;52.758;5.076;2023-12-14T05:16:16;101654.34;;;4.33;100.00
74163;BME280;62515;52.758;5.076;2023-12-14T05:18:43;101657.72;;;4.38;100.00
74163;BME280;62515;52.758;5.076;2023-12-14T05:21:09;101651.69;;;4.34;100.00
74163;BME280;62515;52.758;5.076;2023-12-14T05:23:36;101655.22;;;4.33;100.00
74163;BME280;62515;52.758;5.076;2023-12-14T05:26:03;101658.72;;;4.34;100.00
74163;BME280;62515;52.758;5.076;2023-12-14T05:28:30;101652.59;;;4.33;100.00
74163;BME280;62515;52.758;5.076;2023-12-14T05:30:57;101656.94;;;4.34;100.00
74163;BME280;62515;52.758;5.076;2023-12-14T05:33:25;101657.06;;;4.31;100.00
74163;BME280;62515;52.758;5.076;2023-12-14T05:35:52;101657.06;;;4.31;100.00
74163;BME280;62515;52.758;5.076;2023-12-14T05:38:19;101660.59;;;4.30;100.00
74163;BME280;62515;52.758;5.076;2023-12-14T05:40:45;101651.88;;;4.28;100.00
74163;BME280;62515;52.758;5.076;2023-12-14T05:43:12;101654.53;;;4.28;100.00
74163;BME280;62515;52.758;5.076;2023-12-14T05:45:39;101665.06;;;4.28;100.00
74163;BME280;62515;52.758;5.076;2023-12-14T05:48:06;101666.78;;;4.29;100.00
74163;BME280;62515;52.758;5.076;2023-12-14T05:50:34;101658.03;;;4.29;100.00
74163;BME280;62515;52.758;5.076;2023-12-14T05:53:01;101657.16;;;4.28;100.00
74163;BME280;62515;52.758;5.076;2023-12-14T05:55:28;101652.69;;;4.30;100.00
74163;BME280;62515;52.758;5.076;2023-12-14T05:57:54;101662.22;;;4.34;100.00
74163;BME280;62515;52.758;5.076;2023-12-14T06:00:21;101660.66;;;4.29;100.00
74163;BME280;62515;52.758;5.076;2023-12-14T06:02:48;101665.94;;;4.29;100.00
74163;BME280;62515;52.758;5.076;2023-12-14T06:05:15;101675.53;;;4.30;100.00
74163;BME280;62515;52.758;5.076;2023-12-14T06:07:43;101691.31;;;4.31;100.00
74163;BME280;62515;52.758;5.076;2023-12-14T06:10:10;101709.75;;;4.31;100.00
74163;BME280;62515;52.758;5.076;2023-12-14T06:12:37;101708.03;;;4.30;100.00
74163;BME280;62515;52.758;5.076;2023-12-14T06:15:05;101709.75;;;4.31;100.00
74163;BME280;62515;52.758;5.076;2023-12-14T06:17:32;101708.88;;;4.31;100.00
74163;BME280;62515;52.758;5.076;2023-12-14T06:19:59;101707.91;;;4.33;100.00
74163;BME280;62515;52.758;5.076;2023-12-14T06:22:26;101711.50;;;4.32;100.00
74163;BME280;62515;52.758;5.076;2023-12-14T06:24:54;101712.28;;;4.34;100.00
74163;BME280;62515;52.758;5.076;2023-12-14T06:27:21;101718.44;;;4.35;100.00
74163;BME280;62515;52.758;5.076;2023-12-14T06:29:48;101713.19;;;4.33;100.00
74163;BME280;62515;52.758;5.076;2023-12-14T06:32:14;101704.47;;;4.31;100.00
74163;BME280;62515;52.758;5.076;2023-12-14T06:34:41;101722.81;;;4.34;100.00
74163;BME280;62515;52.758;5.076;2023-12-14T06:37:08;101723.78;;;4.32;100.00
74163;BME280;62515;52.758;5.076;2023-12-14T06:39:35;101732.66;;;4.29;100.00
74163;BME280;62515;52.758;5.076;2023-12-14T06:42:03;101736.00;;;4.34;100.00
74163;BME280;62515;52.758;5.076;2023-12-14T06:44:30;101742.25;;;4.32;100.00
74163;BME280;62515;52.758;5.076;2023-12-14T06:46:58;101752.78;;;4.32;100.00
74163;BME280;62515;52.758;5.076;2023-12-14T06:49:25;101753.59;;;4.34;100.00
74163;BME280;62515;52.758;5.076;2023-12-14T06:51:52;101752.69;;;4.35;100.00
74163;BME280;62515;52.758;5.076;2023-12-14T06:54:18;101755.34;;;4.33;100.00
74163;BME280;62515;52.758;5.076;2023-12-14T06:56:45;101775.47;;;4.36;100.00
74163;BME280;62515;52.758;5.076;2023-12-14T06:59:13;101767.56;;;4.36;100.00
74163;BME280;62515;52.758;5.076;2023-12-14T07:01:40;101773.00;;;4.31;100.00
74163;BME280;62515;52.758;5.076;2023-12-14T07:04:08;101781.69;;;4.33;100.00
74163;BME280;62515;52.758;5.076;2023-12-14T07:06:34;101781.75;;;4.32;100.00
74163;BME280;62515;52.758;5.076;2023-12-14T07:09:01;101780.03;;;4.31;100.00
74163;BME280;62515;52.758;5.076;2023-12-14T07:11:28;101793.06;;;4.35;100.00
74163;BME280;62515;52.758;5.076;2023-12-14T07:13:55;101789.50;;;4.36;100.00
74163;BME280;62515;52.758;5.076;2023-12-14T07:16:23;101796.50;;;4.37;100.00
74163;BME280;62515;52.758;5.076;2023-12-14T07:18:50;101800.03;;;4.38;100.00
74163;BME280;62515;52.758;5.076;2023-12-14T07:21:16;101807.16;;;4.34;100.00
74163;BME280;62515;52.758;5.076;2023-12-14T07:23:43;101802.78;;;4.33;100.00
74163;BME280;62515;52.758;5.076;2023-12-14T07:26:10;101807.06;;;4.37;100.00
74163;BME280;62515;52.758;5.076;2023-12-14T07:28:37;101807.84;;;4.39;100.00
74163;BME280;62515;52.758;5.076;2023-12-14T07:31:03;101812.31;;;4.37;100.00
74163;BME280;62515;52.758;5.076;2023-12-14T07:33:32;101814.09;;;4.37;100.00
74163;BME280;62515;52.758;5.076;2023-12-14T07:35:59;101816.81;;;4.34;100.00
74163;BME280;62515;52.758;5.076;2023-12-14T07:38:25;101819.56;;;4.31;100.00
74163;BME280;62515;52.758;5.076;2023-12-14T07:40:52;101819.69;;;4.26;100.00
74163;BME280;62515;52.758;5.076;2023-12-14T07:43:19;101817.97;;;4.25;100.00
74163;BME280;62515;52.758;5.076;2023-12-14T07:45:46;101824.13;;;4.26;100.00
74163;BME280;62515;52.758;5.076;2023-12-14T07:48:13;101826.75;;;4.26;100.00
74163;BME280;62515;52.758;5.076;2023-12-14T07:50:42;101824.94;;;4.26;100.00
74163;BME280;62515;52.758;5.076;2023-12-14T07:53:09;101825.97;;;4.22;100.00
74163;BME280;62515;52.758;5.076;2023-12-14T07:55:35;101832.16;;;4.19;100.00
74163;BME280;62515;52.758;5.076;2023-12-14T07:58:02;101835.75;;;4.18;100.00
74163;BME280;62515;52.758;5.076;2023-12-14T08:00:32;101837.53;;;4.16;100.00
74163;BME280;62515;52.758;5.076;2023-12-14T08:02:58;101836.75;;;4.13;100.00
74163;BME280;62515;52.758;5.076;2023-12-14T08:05:26;101839.38;;;4.13;100.00
74163;BME280;62515;52.758;5.076;2023-12-14T08:07:54;101847.22;;;4.16;100.00
74163;BME280;62515;52.758;5.076;2023-12-14T08:10:21;101848.06;;;4.16;100.00
74163;BME280;62515;52.758;5.076;2023-12-14T08:12:47;101856.84;;;4.17;100.00
74163;BME280;62515;52.758;5.076;2023-12-14T08:15:14;101869.06;;;4.19;100.00
74163;BME280;62515;52.758;5.076;2023-12-14T08:17:41;101865.50;;;4.22;100.00
74163;BME280;62515;52.758;5.076;2023-12-14T08:20:09;101868.22;;;4.19;100.00
74163;BME280;62515;52.758;5.076;2023-12-14T08:22:36;101867.56;;;4.11;100.00
74163;BME280;62515;52.758;5.076;2023-12-14T08:25:05;101861.81;;;3.97;100.00
74163;BME280;62515;52.758;5.076;2023-12-14T08:27:32;101868.38;;;3.82;100.00
74163;BME280;62515;52.758;5.076;2023-12-14T08:29:58;101876.47;;;3.75;100.00
74163;BME280;62515;52.758;5.076;2023-12-14T08:32:25;101870.34;;;3.74;100.00
74163;BME280;62515;52.758;5.076;2023-12-14T08:34:52;101880.13;;;3.71;100.00
74163;BME280;62515;52.758;5.076;2023-12-14T08:37:19;101878.47;;;3.66;100.00
74163;BME280;62515;52.758;5.076;2023-12-14T08:39:45;101882.06;;;3.62;100.00
74163;BME280;62515;52.758;5.076;2023-12-14T08:42:13;101882.06;;;3.62;100.00
74163;BME280;62515;52.758;5.076;2023-12-14T08:44:40;101885.50;;;3.66;100.00
74163;BME280;62515;52.758;5.076;2023-12-14T08:47:07;101890.50;;;3.75;100.00
74163;BME280;62515;52.758;5.076;2023-12-14T08:49:34;101888.50;;;3.85;100.00
74163;BME280;62515;52.758;5.076;2023-12-14T08:52:01;101891.63;;;3.99;100.00
74163;BME280;62515;52.758;5.076;2023-12-14T08:54:28;101893.72;;;4.17;100.00
74163;BME280;62515;52.758;5.076;2023-12-14T08:56:55;101897.53;;;4.38;100.00
74163;BME280;62515;52.758;5.076;2023-12-14T08:59:23;101902.41;;;4.51;100.00
74163;BME280;62515;52.758;5.076;2023-12-14T09:01:50;101917.66;;;4.69;100.00
74163;BME280;62515;52.758;5.076;2023-12-14T09:04:17;101924.09;;;4.89;100.00
74163;BME280;62515;52.758;5.076;2023-12-14T09:06:43;101929.19;;;5.22;100.00
74163;BME280;62515;52.758;5.076;2023-12-14T09:09:10;101933.75;;;5.44;100.00
74163;BME280;62515;52.758;5.076;2023-12-14T09:11:37;101946.56;;;5.80;100.00
74163;BME280;62515;52.758;5.076;2023-12-14T09:14:04;101950.53;;;6.18;100.00
74163;BME280;62515;52.758;5.076;2023-12-14T09:16:32;101953.97;;;6.45;100.00
74163;BME280;62515;52.758;5.076;2023-12-14T09:18:58;101966.81;;;6.79;100.00
74163;BME280;62515;52.758;5.076;2023-12-14T09:21:25;101958.91;;;6.77;100.00
74163;BME280;62515;52.758;5.076;2023-12-14T09:24:06;101968.34;;;6.84;100.00
74163;BME280;62515;52.758;5.076;2023-12-14T09:26:37;101969.72;;;6.95;100.00
74163;BME280;62515;52.758;5.076;2023-12-14T09:29:04;101975.44;;;7.06;100.00
74163;BME280;62515;52.758;5.076;2023-12-14T09:31:32;101973.03;;;7.00;100.00
74163;BME280;62515;52.758;5.076;2023-12-14T09:33:59;101979.38;;;7.41;100.00
74163;BME280;62515;52.758;5.076;2023-12-14T09:36:26;101984.50;;;7.65;100.00
74163;BME280;62515;52.758;5.076;2023-12-14T09:38:52;101989.38;;;7.76;100.00
74163;BME280;62515;52.758;5.076;2023-12-14T09:41:19;101989.06;;;8.04;100.00
74163;BME280;62515;52.758;5.076;2023-12-14T09:43:46;101997.75;;;8.07;100.00
74163;BME280;62515;52.758;5.076;2023-12-14T09:46:13;102000.81;;;7.98;100.00
74163;BME280;62515;52.758;5.076;2023-12-14T09:48:43;102006.22;;;7.53;100.00
74163;BME280;62515;52.758;5.076;2023-12-14T09:51:11;102006.81;;;7.38;100.00
74163;BME280;62515;52.758;5.076;2023-12-14T09:53:38;102000.06;;;7.31;100.00
74163;BME280;62515;52.758;5.076;2023-12-14T09:56:06;101994.97;;;6.80;100.00
74163;BME280;62515;52.758;5.076;2023-12-14T09:58:33;102004.69;;;6.56;100.00
74163;BME280;62515;52.758;5.076;2023-12-14T10:01:00;102001.25;;;6.29;100.00
74163;BME280;62515;52.758;5.076;2023-12-14T10:03:28;102020.03;;;6.22;100.00
74163;BME280;62515;52.758;5.076;2023-12-14T10:05:58;102015.56;;;6.24;100.00
74163;BME280;62515;52.758;5.076;2023-12-14T10:08:26;102013.97;;;6.18;100.00
74163;BME280;62515;52.758;5.076;2023-12-14T10:10:54;102027.38;;;6.14;100.00
74163;BME280;62515;52.758;5.076;2023-12-14T10:13:22;102027.94;;;5.97;100.00
74163;BME280;62515;52.758;5.076;2023-12-14T10:16:02;102029.41;;;6.06;100.00
74163;BME280;62515;52.758;5.076;2023-12-14T10:18:28;102032.09;;;6.04;100.00
74163;BME280;62515;52.758;5.076;2023-12-14T10:21:02;102037.06;;;6.13;100.00
74163;BME280;62515;52.758;5.076;2023-12-14T10:23:28;102040.06;;;6.03;100.00
74163;BME280;62515;52.758;5.076;2023-12-14T10:25:55;102040.06;;;6.03;100.00
74163;BME280;62515;52.758;5.076;2023-12-14T10:28:22;102043.28;;;5.86;100.00
74163;BME280;62515;52.758;5.076;2023-12-14T10:30:49;102051.06;;;5.91;100.00
74163;BME280;62515;52.758;5.076;2023-12-14T10:33:16;102038.97;;;5.82;100.00
74163;BME280;62515;52.758;5.076;2023-12-14T10:35:43;102052.13;;;5.84;100.00
74163;BME280;62515;52.758;5.076;2023-12-14T10:38:12;102050.28;;;5.87;100.00
74163;BME280;62515;52.758;5.076;2023-12-14T10:40:39;102061.31;;;6.00;100.00
74163;BME280;62515;52.758;5.076;2023-12-14T10:43:06;102054.00;;;6.08;100.00
74163;BME280;62515;52.758;5.076;2023-12-14T10:45:34;102051.59;;;6.26;100.00
74163;BME280;62515;52.758;5.076;2023-12-14T10:48:01;102057.53;;;6.33;100.00
74163;BME280;62515;52.758;5.076;2023-12-14T10:50:31;102058.13;;;6.41;100.00
74163;BME280;62515;52.758;5.076;2023-12-14T10:52:58;102056.53;;;6.37;100.00
74163;BME280;62515;52.758;5.076;2023-12-14T10:55:30;102046.03;;;6.34;100.00
74163;BME280;62515;52.758;5.076;2023-12-14T10:57:58;102049.91;;;6.97;100.00
74163;BME280;62515;52.758;5.076;2023-12-14T11:00:25;102056.47;;;7.33;100.00
74163;BME280;62515;52.758;5.076;2023-12-14T11:02:51;102050.13;;;7.80;100.00
74163;BME280;62515;52.758;5.076;2023-12-14T11:05:18;102052.75;;;7.60;100.00
74163;BME280;62515;52.758;5.076;2023-12-14T11:07:47;102053.19;;;7.48;100.00
74163;BME280;62515;52.758;5.076;2023-12-14T11:10:15;102055.59;;;7.32;100.00
74163;BME280;62515;52.758;5.076;2023-12-14T11:12:59;102053.00;;;7.54;100.00
74163;BME280;62515;52.758;5.076;2023-12-14T11:15:28;102056.22;;;7.39;100.00
74163;BME280;62515;52.758;5.076;2023-12-14T11:18:27;102052.94;;;7.32;100.00
74163;BME280;62515;52.758;5.076;2023-12-14T11:20:55;102052.31;;;7.03;100.00
74163;BME280;62515;52.758;5.076;2023-12-14T11:23:36;102059.75;;;7.16;100.00
74163;BME280;62515;52.758;5.076;2023-12-14T11:26:04;102067.28;;;7.27;100.00
74163;BME280;62515;52.758;5.076;2023-12-14T11:28:35;102073.50;;;7.26;100.00
74163;BME280;62515;52.758;5.076;2023-12-14T11:31:03;102077.38;;;7.17;100.00
74163;BME280;62515;52.758;5.076;2023-12-14T11:33:32;102078.63;;;7.07;100.00
74163;BME280;62515;52.758;5.076;2023-12-14T11:36:00;102091.34;;;6.98;100.00
74163;BME280;62515;52.758;5.076;2023-12-14T11:38:27;102082.00;;;6.88;100.00
74163;BME280;62515;52.758;5.076;2023-12-14T11:40:54;102099.97;;;6.79;100.00
74163;BME280;62515;52.758;5.076;2023-12-14T11:43:21;102094.75;;;6.76;100.00
74163;BME280;62515;52.758;5.076;2023-12-14T11:45:50;102107.09;;;6.53;100.00
74163;BME280;62515;52.758;5.076;2023-12-14T11:48:16;102097.00;;;6.38;100.00
74163;BME280;62515;52.758;5.076;2023-12-14T11:50:44;102102.41;;;6.35;100.00
74163;BME280;62515;52.758;5.076;2023-12-14T11:53:11;102107.31;;;6.20;100.00
74163;BME280;62515;52.758;5.076;2023-12-14T11:55:40;102103.91;;;6.17;100.00
74163;BME280;62515;52.758;5.076;2023-12-14T11:58:08;102113.47;;;6.21;100.00
74163;BME280;62515;52.758;5.076;2023-12-14T12:00:37;102111.75;;;6.20;100.00
74163;BME280;62515;52.758;5.076;2023-12-14T12:03:10;102111.56;;;6.24;100.00
74163;BME280;62515;52.758;5.076;2023-12-14T12:05:39;102108.31;;;6.16;100.00
74163;BME280;62515;52.758;5.076;2023-12-14T12:08:06;102109.44;;;6.09;100.00
74163;BME280;62515;52.758;5.076;2023-12-14T12:10:33;102109.56;;;6.05;100.00
74163;BME280;62515;52.758;5.076;2023-12-14T12:13:02;102107.56;;;6.13;100.00
74163;BME280;62515;52.758;5.076;2023-12-14T12:15:28;102105.22;;;6.04;100.00
74163;BME280;62515;52.758;5.076;2023-12-14T12:17:55;102098.31;;;6.00;100.00
74163;BME280;62515;52.758;5.076;2023-12-14T12:20:23;102096.44;;;6.03;100.00
74163;BME280;62515;52.758;5.076;2023-12-14T12:22:50;102095.13;;;5.89;100.00
74163;BME280;62515;52.758;5.076;2023-12-14T12:25:17;102094.13;;;5.93;100.00
74163;BME280;62515;52.758;5.076;2023-12-14T12:27:44;102097.44;;;5.99;100.00
74163;BME280;62515;52.758;5.076;2023-12-14T12:30:11;102104.47;;;6.00;100.00
74163;BME280;62515;52.758;5.076;2023-12-14T12:32:37;102108.63;;;6.07;100.00
74163;BME280;62515;52.758;5.076;2023-12-14T12:35:05;102113.16;;;6.04;100.00
74163;BME280;62515;52.758;5.076;2023-12-14T12:37:33;102114.97;;;6.02;100.00
74163;BME280;62515;52.758;5.076;2023-12-14T12:40:01;102108.84;;;6.01;100.00
74163;BME280;62515;52.758;5.076;2023-12-14T12:42:27;102110.63;;;6.01;100.00
74163;BME280;62515;52.758;5.076;2023-12-14T12:44:54;102113.16;;;6.04;100.00
74163;BME280;62515;52.758;5.076;2023-12-14T12:47:21;102102.72;;;5.99;100.00
74163;BME280;62515;52.758;5.076;2023-12-14T12:49:48;102115.72;;;6.05;100.00
74163;BME280;62515;52.758;5.076;2023-12-14T12:52:15;102113.19;;;6.02;100.00